Time;durP1;ratioP1;P1;durP2;ratioP2;P2;SDS_P1;SDS_P2;PMS_P1;PMS_P2;Temp;Humidity;BMP_temperature;BMP_pressure;BME280_temperature;BME280_humidity;BME280_pressure;Samples;Min_cycle;Max_cycle;Signal;HPM_P1;HPM_P2
2022/07/27 00:00:20;;;;;;;5.25;2.75;;;;;;;13.40;83.67;101914.91;4877558;29;20036;-71
2022/07/27 00:02:45;;;;;;;6.47;3.05;;;;;;;13.39;83.74;101923.97;4877939;29;20033;-71
2022/07/27 00:05:11;;;;;;;5.53;2.65;;;;;;;13.35;84.11;101918.16;4877326;29;20040;-72
2022/07/27 00:07:36;;;;;;;8.35;2.70;;;;;;;13.36;84.73;101910.94;4877664;29;20040;-71
2022/07/27 00:10:03;;;;;;;4.80;2.10;;;;;;;13.35;85.16;101920.84;4860718;29;20033;-72
2022/07/27 00:12:29;;;;;;;6.55;2.83;;;;;;;13.35;84.45;101915.47;4876942;29;20052;-71
2022/07/27 00:14:57;;;;;;;5.18;2.45;;;;;;;13.34;84.42;101916.50;4878196;29;20037;-71
2022/07/27 00:17:24;;;;;;;5.10;2.10;;;;;;;13.30;84.52;101912.53;4877684;29;20045;-67
2022/07/27 00:19:49;;;;;;;3.65;2.55;;;;;;;13.35;84.20;101920.00;4877228;29;20456;-67
2022/07/27 00:22:14;;;;;;;8.82;3.05;;;;;;;13.28;84.37;101903.00;4877574;29;20143;-67
2022/07/27 00:24:40;;;;;;;3.53;2.40;;;;;;;13.30;84.90;101915.19;4877400;29;20025;-67
2022/07/27 00:27:07;;;;;;;4.47;1.92;;;;;;;13.27;84.85;101918.25;4877436;29;20151;-67
2022/07/27 00:29:32;;;;;;;4.70;2.33;;;;;;;13.25;84.62;101922.13;4877224;29;20512;-67
2022/07/27 00:31:57;;;;;;;6.60;2.72;;;;;;;13.19;84.52;101922.88;4877159;29;20085;-67
2022/07/27 00:34:23;;;;;;;7.15;3.38;;;;;;;13.13;84.97;101911.06;4877254;29;20025;-67
2022/07/27 00:36:48;;;;;;;3.35;2.00;;;;;;;13.07;85.31;101915.34;4877392;29;20130;-68
2022/07/27 00:39:14;;;;;;;5.60;2.15;;;;;;;13.09;85.18;101923.16;4860262;29;20041;-67
2022/07/27 00:41:39;;;;;;;4.43;1.85;;;;;;;13.06;85.21;101912.81;4860459;29;20048;-67
2022/07/27 00:44:05;;;;;;;5.25;1.88;;;;;;;13.05;85.29;101911.19;4876943;29;20071;-67
2022/07/27 00:46:31;;;;;;;4.95;2.38;;;;;;;13.01;85.39;101909.88;4875833;29;20072;-67
2022/07/27 00:48:57;;;;;;;3.40;1.90;;;;;;;12.98;85.76;101913.75;4876481;29;20037;-67
2022/07/27 00:51:24;;;;;;;3.53;2.83;;;;;;;12.95;86.08;101919.50;4877015;29;20033;-67
2022/07/27 00:53:51;;;;;;;5.95;2.95;;;;;;;12.91;85.79;101916.34;4876835;29;20048;-67
2022/07/27 00:56:17;;;;;;;8.85;3.17;;;;;;;12.83;85.41;101900.38;4876773;29;20489;-67
2022/07/27 00:58:45;;;;;;;3.80;2.40;;;;;;;12.90;85.38;101913.84;4876474;29;20047;-67
2022/07/27 01:01:10;;;;;;;6.47;2.38;;;;;;;12.86;85.37;101917.91;4876500;29;20051;-67
2022/07/27 01:03:36;;;;;;;3.88;2.10;;;;;;;12.83;85.63;101918.28;4876067;29;20481;-67
2022/07/27 01:06:01;;;;;;;8.82;3.00;;;;;;;12.81;86.25;101914.97;4876246;29;20084;-67
2022/07/27 01:08:27;;;;;;;3.15;2.08;;;;;;;12.75;86.25;101921.88;4844513;29;20033;-67
2022/07/27 01:10:55;;;;;;;4.57;1.83;;;;;;;12.66;86.47;101914.97;4876462;29;20105;-67
2022/07/27 01:13:20;;;;;;;4.63;1.80;;;;;;;12.64;86.89;101917.81;4876376;29;20501;-71
2022/07/27 01:15:47;;;;;;;5.68;1.73;;;;;;;12.61;86.96;101917.38;4876466;29;20040;-71
2022/07/27 01:18:31;;;;;;;9.70;2.40;;;;;;;12.56;87.00;101920.59;4876427;29;20440;-71
2022/07/27 01:20:58;;;;;;;3.38;2.67;;;;;;;12.47;86.47;101913.66;4876444;29;20037;-72
2022/07/27 01:23:24;;;;;;;4.78;2.55;;;;;;;12.46;86.62;101912.81;4876413;29;20033;-71
2022/07/27 01:25:50;;;;;;;4.63;2.20;;;;;;;12.46;86.74;101912.81;4876353;29;20029;-71
2022/07/27 01:28:15;;;;;;;6.45;2.50;;;;;;;12.43;86.56;101918.53;4876339;29;20070;-71
2022/07/27 01:30:41;;;;;;;3.25;2.00;;;;;;;12.43;86.76;101918.53;4876322;29;20032;-71
2022/07/27 01:33:08;;;;;;;3.03;1.98;;;;;;;12.42;87.16;101913.41;4859528;29;20040;-71
2022/07/27 01:35:35;;;;;;;8.05;2.78;;;;;;;12.38;87.43;101912.91;4876142;29;20426;-71
2022/07/27 01:38:02;;;;;;;3.05;2.08;;;;;;;12.32;87.66;101910.97;4859612;29;20441;-72
2022/07/27 01:40:28;;;;;;;7.80;2.70;;;;;;;12.37;87.69;101911.25;4876117;29;20033;-71
2022/07/27 01:42:53;;;;;;;6.80;2.80;;;;;;;12.42;87.96;101910.72;4876050;29;20515;-72
2022/07/27 01:45:18;;;;;;;3.60;2.33;;;;;;;12.39;87.53;101911.06;4875935;29;20485;-71
2022/07/27 01:47:44;;;;;;;6.07;2.70;;;;;;;12.31;87.61;101909.28;4875816;29;20037;-72
2022/07/27 01:50:10;;;;;;;4.15;2.53;;;;;;;12.30;88.17;101909.50;4875244;29;20039;-71
2022/07/27 01:52:38;;;;;;;4.70;2.72;;;;;;;12.27;88.28;101916.03;4875973;29;20492;-72
2022/07/27 01:55:05;;;;;;;5.97;2.30;;;;;;;12.25;88.15;101912.72;4875711;29;20036;-71
2022/07/27 01:57:30;;;;;;;6.65;2.92;;;;;;;12.23;88.06;101907.53;4875787;29;20039;-71
2022/07/27 01:59:56;;;;;;;4.35;2.30;;;;;;;12.22;88.39;101907.72;4875389;29;20041;-71
2022/07/27 02:02:21;;;;;;;4.35;2.20;;;;;;;12.15;88.20;101904.94;4859006;29;20374;-71
2022/07/27 02:04:46;;;;;;;7.75;2.20;;;;;;;12.06;88.48;101900.69;4859057;29;20085;-71
2022/07/27 02:07:12;;;;;;;5.85;2.03;;;;;;;12.07;88.61;101905.81;4875276;29;20036;-71
2022/07/27 02:09:37;;;;;;;7.38;3.13;;;;;;;12.00;88.86;101898.75;4875765;29;20043;-71
2022/07/27 02:15:11;;;;;;;5.95;2.67;;;;;;;12.02;88.98;101899.38;4836680;29;20046;-71
2022/07/27 02:17:38;;;;;;;7.55;2.10;;;;;;;12.03;88.72;101907.22;4869591;29;20048;-72
2022/07/27 02:20:05;;;;;;;6.18;2.40;;;;;;;11.99;89.13;101903.22;4875499;29;20421;-71
2022/07/27 02:22:30;;;;;;;4.90;2.13;;;;;;;12.00;89.21;101906.75;4875571;29;20044;-71
2022/07/27 02:24:55;;;;;;;4.95;2.10;;;;;;;11.99;89.14;101902.41;4875256;29;20033;-71
2022/07/27 02:27:21;;;;;;;5.30;2.40;;;;;;;11.97;89.87;101896.41;4875573;29;20116;-71
2022/07/27 02:29:46;;;;;;;4.03;1.98;;;;;;;11.94;89.18;101894.09;4875259;29;20045;-71
2022/07/27 02:32:12;;;;;;;3.85;2.03;;;;;;;11.91;89.67;101900.63;4875582;29;20057;-71
2022/07/27 02:34:37;;;;;;;3.40;1.83;;;;;;;11.84;89.99;101900.50;4875289;29;20069;-72
2022/07/27 02:37:02;;;;;;;5.22;2.25;;;;;;;11.80;89.93;101895.69;4858764;29;20515;-71
2022/07/27 02:39:28;;;;;;;3.55;2.50;;;;;;;11.82;89.96;101899.00;4875316;29;20037;-71
2022/07/27 02:41:53;;;;;;;6.90;2.70;;;;;;;11.81;89.75;101900.84;4876009;29;20033;-71
2022/07/27 02:44:19;;;;;;;5.53;2.20;;;;;;;11.81;89.56;101900.00;4876166;29;20061;-71
2022/07/27 02:46:44;;;;;;;3.70;2.50;;;;;;;11.75;89.84;101893.53;4875316;29;20485;-72
2022/07/27 02:49:10;;;;;;;4.95;2.47;;;;;;;11.74;90.03;101902.56;4875326;29;20100;-71
2022/07/27 02:51:35;;;;;;;3.67;2.33;;;;;;;11.71;90.13;101894.06;4874823;29;20116;-71
2022/07/27 02:54:01;;;;;;;5.07;2.13;;;;;;;11.68;90.46;101897.09;4874840;29;20128;-71
2022/07/27 02:56:26;;;;;;;4.65;2.20;;;;;;;11.61;90.65;101895.16;4875288;29;20033;-71
2022/07/27 02:58:52;;;;;;;6.03;1.80;;;;;;;11.52;90.42;101884.69;4874984;29;20093;-72
2022/07/27 03:01:17;;;;;;;6.72;2.58;;;;;;;11.49;90.83;101893.06;4875196;29;20485;-71
2022/07/27 03:03:42;;;;;;;7.30;2.47;;;;;;;11.43;91.02;101878.56;4875127;29;20489;-72
2022/07/27 03:06:08;;;;;;;4.60;2.63;;;;;;;11.48;91.32;101899.44;4875062;29;20051;-71
2022/07/27 03:08:37;;;;;;;6.55;2.47;;;;;;;11.41;91.79;101892.09;4874942;29;20116;-71
2022/07/27 03:11:03;;;;;;;4.88;2.58;;;;;;;11.40;91.73;101892.28;4877409;29;20116;-71
2022/07/27 03:13:29;;;;;;;5.07;2.70;;;;;;;11.38;92.09;101887.09;4878653;29;20152;-71
2022/07/27 03:15:56;;;;;;;5.85;2.42;;;;;;;11.38;91.74;101896.97;4878483;29;20029;-71
2022/07/27 03:18:21;;;;;;;7.10;2.38;;;;;;;11.34;91.99;101891.16;4878622;29;20905;-71
2022/07/27 03:20:47;;;;;;;4.03;2.42;;;;;;;11.35;92.04;101892.81;4878227;29;20084;-71
2022/07/27 03:23:12;;;;;;;6.35;2.83;;;;;;;11.36;92.13;101899.81;4878501;29;20491;-71
2022/07/27 03:25:38;;;;;;;5.15;2.65;;;;;;;11.33;91.92;101894.81;4878581;29;20116;-71
2022/07/27 03:28:03;;;;;;;5.20;2.47;;;;;;;11.34;91.97;101907.19;4861674;29;20089;-71
2022/07/27 03:30:29;;;;;;;5.97;2.75;;;;;;;11.28;92.28;101893.69;4878418;29;20069;-71
2022/07/27 03:32:54;;;;;;;3.78;2.20;;;;;;;11.31;92.23;101896.81;4878201;29;20152;-71
2022/07/27 03:35:20;;;;;;;6.35;2.42;;;;;;;11.35;92.44;101900.81;4878203;29;20048;-71
2022/07/27 03:37:45;;;;;;;5.45;2.95;;;;;;;11.34;92.76;101898.31;4878158;29;20033;-71
2022/07/27 03:40:10;;;;;;;3.97;2.40;;;;;;;11.34;92.38;101901.84;4878369;29;20047;-71
2022/07/27 03:42:36;;;;;;;5.00;2.78;;;;;;;11.34;92.04;101901.00;4878245;29;20033;-72
2022/07/27 03:45:03;;;;;;;6.65;3.13;;;;;;;11.31;91.99;101898.66;4878104;29;20041;-71
2022/07/27 03:47:28;;;;;;;6.15;2.35;;;;;;;11.23;92.02;101896.06;4877858;29;20037;-71
2022/07/27 03:49:53;;;;;;;6.25;2.83;;;;;;;11.21;92.02;101908.75;4863289;29;20096;-71
2022/07/27 03:52:19;;;;;;;5.10;2.53;;;;;;;11.23;92.07;101907.56;4877876;29;20041;-71
2022/07/27 03:54:46;;;;;;;8.38;3.33;;;;;;;11.17;92.32;101911.75;4877343;29;20033;-71
2022/07/27 03:57:11;;;;;;;4.60;2.67;;;;;;;11.17;92.87;101910.94;4877487;29;20040;-71
2022/07/27 03:59:36;;;;;;;6.20;2.85;;;;;;;11.20;92.85;101907.91;4877699;29;20092;-71
2022/07/27 04:02:03;;;;;;;7.07;2.55;;;;;;;11.16;92.81;101906.59;4877708;29;20033;-72
2022/07/27 04:04:28;;;;;;;5.13;2.47;;;;;;;11.07;92.38;101904.97;4877721;29;20132;-71
2022/07/27 04:06:54;;;;;;;4.85;2.63;;;;;;;11.02;92.65;101908.16;4861002;29;20120;-71
2022/07/27 04:09:19;;;;;;;4.70;2.63;;;;;;;10.99;93.05;101905.84;4877195;29;20033;-72
2022/07/27 04:11:45;;;;;;;5.50;2.80;;;;;;;10.96;93.20;101907.03;4877179;29;20057;-71
2022/07/27 04:14:11;;;;;;;5.70;3.38;;;;;;;10.96;93.06;101907.03;4877578;29;20057;-71
2022/07/27 04:16:37;;;;;;;7.43;3.08;;;;;;;11.01;93.79;101916.34;4877655;29;20523;-71
2022/07/27 04:19:02;;;;;;;8.77;3.45;;;;;;;11.01;93.41;101911.03;4877514;29;20061;-71
2022/07/27 04:21:28;;;;;;;7.25;2.72;;;;;;;11.06;93.51;101916.66;4860590;29;20116;-71
2022/07/27 04:23:53;;;;;;;7.65;2.65;;;;;;;11.08;93.28;101914.63;4877400;29;20065;-72
2022/07/27 04:26:19;;;;;;;7.47;3.20;;;;;;;11.08;93.54;101917.31;4877252;29;20040;-71
2022/07/27 04:28:44;;;;;;;5.68;2.72;;;;;;;11.11;93.67;101909.81;4877246;29;20037;-71
2022/07/27 04:31:09;;;;;;;8.65;3.05;;;;;;;11.15;93.49;101911.09;4877387;29;20564;-71
2022/07/27 04:33:35;;;;;;;4.97;3.00;;;;;;;11.15;93.19;101911.09;4877089;29;20044;-71
2022/07/27 04:36:00;;;;;;;5.95;2.45;;;;;;;11.15;93.32;101920.94;4877119;29;20035;-71
2022/07/27 04:38:25;;;;;;;5.68;2.47;;;;;;;11.07;92.97;101919.16;4877047;29;20037;-71
2022/07/27 04:40:51;;;;;;;6.35;2.50;;;;;;;11.00;92.93;101922.69;4877128;29;20485;-71
2022/07/27 04:43:16;;;;;;;7.10;3.17;;;;;;;10.97;93.31;101926.53;4877093;29;20047;-71
2022/07/27 04:45:41;;;;;;;6.40;2.53;;;;;;;11.06;93.60;101924.69;4877233;29;20064;-71
2022/07/27 04:48:09;;;;;;;5.10;2.47;;;;;;;11.16;93.67;101927.94;4877028;29;20120;-71
2022/07/27 04:50:41;;;;;;;8.18;3.97;;;;;;;11.18;93.23;101928.59;4877029;29;20481;-71
2022/07/27 04:53:09;;;;;;;10.90;3.25;;;;;;;11.17;93.52;101914.44;4877005;29;20036;-71
2022/07/27 04:55:35;;;;;;;9.35;4.70;;;;;;;11.37;94.58;101927.34;4876138;29;20043;-71
2022/07/27 04:58:00;;;;;;;12.50;4.75;;;;;;;11.61;93.88;101931.72;4876396;29;20037;-71
2022/07/27 05:00:26;;;;;;;12.48;4.55;;;;;;;11.78;92.82;101930.59;4876236;29;20389;-72
2022/07/27 05:02:51;;;;;;;11.27;3.92;;;;;;;11.95;92.35;101926.00;4876921;29;20120;-71
2022/07/27 05:05:16;;;;;;;10.27;3.15;;;;;;;12.06;90.89;101933.59;4876588;29;20452;-71
2022/07/27 05:07:42;;;;;;;13.77;4.65;;;;;;;12.10;91.03;101920.69;4876709;29;20037;-71
2022/07/27 05:10:07;;;;;;;10.38;5.05;;;;;;;12.25;90.60;101929.56;4876490;29;20048;-71
2022/07/27 05:12:33;;;;;;;5.45;2.67;;;;;;;12.35;90.70;101928.50;4875974;29;20148;-71
2022/07/27 05:14:58;;;;;;;6.35;3.53;;;;;;;12.48;90.65;101926.03;4876437;29;20033;-71
2022/07/27 05:17:23;;;;;;;8.52;2.83;;;;;;;12.63;89.78;101934.91;4876507;29;20043;-71
2022/07/27 05:19:49;;;;;;;4.88;3.10;;;;;;;12.78;89.12;101937.56;4876176;29;20358;-71
2022/07/27 05:22:14;;;;;;;9.82;3.00;;;;;;;12.82;88.88;101944.25;4876315;29;20099;-71
2022/07/27 05:24:40;;;;;;;5.05;2.67;;;;;;;12.86;88.87;101944.69;4876459;29;20070;-72
2022/07/27 05:27:05;;;;;;;5.55;2.85;;;;;;;12.91;89.70;101944.97;4876250;29;20048;-71
2022/07/27 05:29:31;;;;;;;7.15;2.97;;;;;;;12.97;89.29;101938.88;4876185;29;20474;-72
2022/07/27 05:31:56;;;;;;;4.25;2.60;;;;;;;13.10;89.75;101947.09;4876140;29;20045;-71
2022/07/27 05:34:21;;;;;;;7.82;3.22;;;;;;;13.29;89.91;101947.56;4875389;29;20040;-72
2022/07/27 05:36:47;;;;;;;11.82;4.15;;;;;;;13.68;89.08;101949.84;4876203;29;20065;-71
2022/07/27 05:39:12;;;;;;;6.80;2.92;;;;;;;13.94;87.39;101948.47;4859526;29;20025;-71
2022/07/27 05:41:37;;;;;;;14.10;4.22;;;;;;;13.86;86.63;101932.47;4876217;29;20129;-71
2022/07/27 05:44:03;;;;;;;4.35;2.63;;;;;;;13.90;87.16;101948.00;4875964;29;20020;-71
2022/07/27 05:46:32;;;;;;;5.95;3.28;;;;;;;13.82;87.12;101937.41;4875917;29;20497;-72
2022/07/27 05:48:57;;;;;;;6.57;4.05;;;;;;;13.89;87.03;101951.72;4875883;29;20021;-72
2022/07/27 05:51:22;;;;;;;9.77;3.22;;;;;;;13.82;86.80;101932.88;4875770;29;20366;-71
2022/07/27 05:53:48;;;;;;;7.93;3.65;;;;;;;13.94;86.64;101948.47;4876024;29;20037;-71
2022/07/27 05:56:13;;;;;;;7.45;3.55;;;;;;;14.05;86.45;101950.63;4875616;29;20100;-72
2022/07/27 05:58:39;;;;;;;6.35;2.47;;;;;;;14.12;86.31;101958.72;4875636;29;20041;-71
2022/07/27 06:01:04;;;;;;;6.82;3.20;;;;;;;14.16;86.71;101952.78;4875593;29;20033;-71
2022/07/27 06:03:30;;;;;;;4.97;2.75;;;;;;;14.26;87.29;101960.50;4843899;29;20521;-71
2022/07/27 06:07:57;;;;;;;5.75;2.67;;;;;;;14.31;87.09;101959.94;4875685;29;20033;-71
2022/07/27 06:08:40;;;;;;;6.13;2.78;;;;;;;14.35;86.41;101959.34;4875734;29;20461;-71
2022/07/27 06:11:06;;;;;;;4.82;2.67;;;;;;;14.47;86.49;101963.16;4875601;29;20033;-72
2022/07/27 06:13:34;;;;;;;5.32;3.85;;;;;;;14.52;85.80;101967.13;4875195;29;20065;-71
2022/07/27 06:16:00;;;;;;;5.10;3.25;;;;;;;14.56;86.40;101966.53;4875464;29;20493;-71
2022/07/27 06:18:25;;;;;;;5.40;2.75;;;;;;;14.60;84.96;101965.13;4875479;29;20043;-71
2022/07/27 06:20:50;;;;;;;4.15;2.50;;;;;;;14.62;83.55;101964.97;4875704;29;20029;-71
2022/07/27 06:23:16;;;;;;;3.72;2.47;;;;;;;14.66;83.42;101969.72;4875457;29;20041;-71
2022/07/27 06:25:42;;;;;;;7.53;2.35;;;;;;;14.70;82.79;101962.13;4875555;29;20370;-71
2022/07/27 06:28:08;;;;;;;8.10;3.45;;;;;;;14.73;82.29;101968.94;4875581;29;20070;-71
2022/07/27 06:30:33;;;;;;;3.40;2.30;;;;;;;14.81;82.36;101977.69;4875420;29;20032;-71
2022/07/27 06:32:59;;;;;;;5.82;2.83;;;;;;;14.78;81.80;101966.50;4875502;29;20552;-71
2022/07/27 06:35:24;;;;;;;4.32;2.60;;;;;;;14.84;83.01;101969.22;4875222;29;20041;-71
2022/07/27 06:37:51;;;;;;;5.47;2.95;;;;;;;14.96;83.96;101971.34;4875292;29;20033;-70
2022/07/27 06:40:17;;;;;;;6.35;2.70;;;;;;;14.96;81.06;101974.03;4859052;29;20397;-68
2022/07/27 06:42:42;;;;;;;4.85;2.72;;;;;;;15.02;81.87;101981.31;4875455;29;20036;-67
2022/07/27 06:45:10;;;;;;;6.20;2.47;;;;;;;14.98;80.59;101978.19;4877599;29;20029;-68
2022/07/27 06:47:36;;;;;;;5.45;2.47;;;;;;;14.99;81.37;101981.72;4879193;29;20025;-68
2022/07/27 06:50:02;;;;;;;5.13;2.70;;;;;;;14.90;83.46;101981.84;4878645;29;20089;-67
2022/07/27 06:52:27;;;;;;;5.78;2.78;;;;;;;14.79;82.18;101984.28;4878983;29;20434;-67
2022/07/27 06:54:53;;;;;;;3.75;2.05;;;;;;;14.67;82.38;101982.13;4878893;29;20029;-67
2022/07/27 06:57:18;;;;;;;8.27;3.78;;;;;;;14.63;82.66;101985.41;4878740;29;20041;-68
2022/07/27 06:59:43;;;;;;;6.78;3.90;;;;;;;14.60;83.34;101977.75;4878277;29;20035;-67
2022/07/27 07:02:09;;;;;;;7.55;3.65;;;;;;;14.60;83.64;101977.75;4878628;29;20068;-74
2022/07/27 07:04:34;;;;;;;4.78;2.97;;;;;;;14.67;83.83;101978.59;4878717;29;20025;-67
2022/07/27 07:07:00;;;;;;;11.57;2.97;;;;;;;14.75;83.76;101980.31;4878806;29;20048;-68
2022/07/27 07:09:29;;;;;;;4.57;3.10;;;;;;;14.93;84.68;101982.47;4878652;29;20032;-68
2022/07/27 07:11:55;;;;;;;7.18;2.80;;;;;;;15.04;83.15;101981.94;4878461;29;20068;-68
2022/07/27 07:14:21;;;;;;;8.77;3.17;;;;;;;15.12;81.29;101982.59;4877949;29;20438;-67
2022/07/27 07:16:47;;;;;;;6.30;3.08;;;;;;;15.22;82.09;101986.78;4861893;29;20033;-67
2022/07/27 07:19:13;;;;;;;7.72;2.97;;;;;;;15.32;80.50;101997.97;4878283;29;20043;-67
2022/07/27 07:21:38;;;;;;;4.75;1.70;;;;;;;15.30;76.73;101981.22;4878620;29;20200;-67
2022/07/27 07:24:04;;;;;;;2.00;1.50;;;;;;;15.41;78.67;101996.81;4861496;29;20029;-69
2022/07/27 07:26:30;;;;;;;5.00;1.58;;;;;;;15.42;78.39;101994.94;4873279;29;20541;-67
2022/07/27 07:28:55;;;;;;;7.05;1.50;;;;;;;15.44;76.67;101991.03;4874346;29;20064;-67
2022/07/27 07:31:21;;;;;;;5.90;2.50;;;;;;;15.52;78.60;101995.41;4874390;29;20145;-67
2022/07/27 07:33:46;;;;;;;3.78;1.55;;;;;;;15.57;76.14;101991.06;4874382;29;20041;-68
2022/07/27 07:36:11;;;;;;;6.55;1.98;;;;;;;15.65;75.87;101997.31;4873747;29;20124;-68
2022/07/27 07:38:37;;;;;;;5.75;1.73;;;;;;;15.64;75.20;101985.72;4874573;29;20403;-68
2022/07/27 07:41:02;;;;;;;4.05;1.88;;;;;;;15.82;74.62;102000.47;4874163;29;20036;-68
2022/07/27 07:43:27;;;;;;;5.72;2.33;;;;;;;15.85;72.94;102006.28;4875240;29;20037;-66
2022/07/27 07:45:54;;;;;;;3.90;1.40;;;;;;;15.91;71.96;102002.78;4878097;29;20422;-66
2022/07/27 07:48:20;;;;;;;5.18;2.50;;;;;;;16.04;69.44;102010.06;4878065;29;20033;-66
2022/07/27 07:50:46;;;;;;;2.17;1.20;;;;;;;16.12;71.24;102014.41;4878074;29;20037;-66
2022/07/27 07:53:13;;;;;;;2.42;1.25;;;;;;;16.26;71.52;102002.59;4877991;29;20116;-66
2022/07/27 07:55:38;;;;;;;2.17;1.60;;;;;;;16.44;71.64;102016.28;4877376;29;20029;-66
2022/07/27 07:58:04;;;;;;;4.38;1.48;;;;;;;16.56;69.99;102013.81;4877824;29;20067;-66
2022/07/27 08:00:29;;;;;;;3.00;1.42;;;;;;;16.61;67.77;102021.25;4877375;29;20068;-66
2022/07/27 08:02:56;;;;;;;2.17;0.95;;;;;;;16.47;63.28;102016.91;4877633;29;20025;-66
2022/07/27 08:05:23;;;;;;;6.63;1.92;;;;;;;16.32;66.97;102017.97;4877660;29;20092;-65
2022/07/27 08:07:50;;;;;;;1.30;1.20;;;;;;;16.24;67.82;102011.94;4877722;29;20036;-71
2022/07/27 08:10:18;;;;;;;2.67;1.27;;;;;;;16.38;66.58;102016.31;4877799;29;20033;-71
2022/07/27 08:12:46;;;;;;;4.88;1.48;;;;;;;16.34;67.55;102021.25;4877445;29;20113;-71
2022/07/27 08:15:13;;;;;;;3.75;1.50;;;;;;;16.40;68.21;102020.44;4876985;29;20160;-71
2022/07/27 08:17:41;;;;;;;3.53;1.45;;;;;;;16.33;65.09;102018.78;4877640;29;20489;-71
2022/07/27 08:20:07;;;;;;;2.90;1.30;;;;;;;16.32;66.49;102023.34;4877507;29;20035;-71
2022/07/27 08:22:34;;;;;;;5.82;1.95;;;;;;;16.99;64.89;102016.06;4877325;29;20397;-71
2022/07/27 08:25:00;;;;;;;8.65;1.98;;;;;;;17.95;59.61;102020.69;4877489;29;20033;-71
2022/07/27 08:27:25;;;;;;;3.30;1.13;;;;;;;18.09;56.00;102016.00;4877393;29;20056;-71
2022/07/27 08:29:50;;;;;;;2.13;1.10;;;;;;;17.83;58.48;102022.41;4877853;29;20069;-71
2022/07/27 08:32:16;;;;;;;3.20;1.17;;;;;;;18.98;58.02;102019.44;4877483;29;20090;-71
2022/07/27 08:34:41;;;;;;;6.40;1.10;;;;;;;20.41;53.04;102019.00;4877123;29;20521;-71
2022/07/27 08:37:07;;;;;;;7.50;1.92;;;;;;;21.05;49.16;102014.56;4877304;29;20371;-71
2022/07/27 08:39:32;;;;;;;5.43;1.50;;;;;;;21.05;50.04;102014.56;4876760;29;20051;-71
2022/07/27 08:42:05;;;;;;;1.35;0.90;;;;;;;21.13;46.89;102013.38;4877016;29;20033;-71
2022/07/27 08:44:32;;;;;;;5.78;1.77;;;;;;;21.55;46.33;102013.97;4877014;29;20021;-72
2022/07/27 08:47:01;;;;;;;2.70;1.25;;;;;;;21.60;47.55;102010.56;4877068;29;20033;-72
2022/07/27 08:49:27;;;;;;;5.80;1.60;;;;;;;21.77;46.12;102014.16;4876999;29;20033;-71
2022/07/27 08:51:53;;;;;;;2.17;1.17;;;;;;;22.62;44.16;102008.78;4876877;29;20033;-71
2022/07/27 08:54:18;;;;;;;3.75;1.08;;;;;;;22.94;42.49;102006.25;4876676;29;20425;-71
2022/07/27 08:56:44;;;;;;;1.15;1.08;;;;;;;22.62;43.44;101996.00;4876909;29;20052;-71
2022/07/27 08:59:09;;;;;;;5.25;1.52;;;;;;;22.89;44.38;102000.72;4860369;29;20112;-71
2022/07/27 09:01:34;;;;;;;3.60;1.00;;;;;;;24.15;42.23;101991.56;4860110;29;20044;-71
2022/07/27 09:04:00;;;;;;;4.38;1.30;;;;;;;25.01;39.70;101997.88;4876329;29;20033;-70
2022/07/27 09:06:44;;;;;;;2.00;0.70;;;;;;;23.86;41.99;101995.66;4876572;29;20033;-71
2022/07/27 09:09:11;;;;;;;5.10;0.90;;;;;;;22.41;41.58;102002.22;4875428;29;20033;-71
2022/07/27 09:11:37;;;;;;;1.08;0.98;;;;;;;21.28;46.53;102002.03;4876378;29;20573;-70
2022/07/27 09:14:04;;;;;;;3.63;0.90;;;;;;;20.25;46.92;102007.81;4859640;29;20115;-70
2022/07/27 09:16:30;;;;;;;1.80;1.10;;;;;;;19.59;49.31;102006.03;4876444;29;20049;-71
2022/07/27 09:19:08;;;;;;;2.33;1.25;;;;;;;19.32;50.36;102013.66;4876359;29;20036;-70
2022/07/27 09:21:35;;;;;;;3.90;1.05;;;;;;;19.26;51.80;102007.28;4876469;29;20151;-71
2022/07/27 09:24:08;;;;;;;2.15;1.35;;;;;;;19.35;51.76;102011.31;4876503;29;20037;-70
2022/07/27 09:26:34;;;;;;;1.75;1.02;;;;;;;19.29;52.17;102001.41;4876358;29;20033;-71
2022/07/27 09:29:09;;;;;;;3.63;1.08;;;;;;;19.42;54.76;102012.06;5087146;27;20385;-69
2022/07/27 09:31:48;;;;;;;11.85;1.90;;;;;;;19.18;52.56;102000.31;5086756;28;20042;-70
2022/07/27 09:34:27;;;;;;;3.53;0.95;;;;;;;18.87;53.73;102011.25;5068771;28;20793;-69
2022/07/27 09:36:54;;;;;;;3.80;0.98;;;;;;;18.70;53.77;102011.78;5086735;28;20024;-70
2022/07/27 09:39:22;;;;;;;2.00;1.20;;;;;;;18.69;52.68;102001.22;5086788;28;20028;-70
2022/07/27 09:41:52;;;;;;;4.40;0.95;;;;;;;18.67;52.65;102009.53;5086695;28;20036;-69
2022/07/27 09:44:34;;;;;;;4.13;1.10;;;;;;;18.56;53.73;102011.06;5086632;28;20028;-70
2022/07/27 09:47:00;;;;;;;1.58;1.17;;;;;;;18.38;53.47;102019.13;5086509;28;20099;-70
2022/07/27 09:49:27;;;;;;;1.58;1.42;;;;;;;18.12;54.69;102004.78;5068310;28;20131;-70
2022/07/27 09:51:54;;;;;;;2.65;0.98;;;;;;;17.94;54.69;102015.47;5068600;28;20043;-69
2022/07/27 09:54:20;;;;;;;3.05;0.93;;;;;;;17.81;55.03;102012.88;5086398;28;20029;-69
2022/07/27 09:56:56;;;;;;;3.85;1.20;;;;;;;17.79;54.50;101998.72;5086122;28;20043;-69
2022/07/27 09:59:21;;;;;;;2.63;1.02;;;;;;;17.94;55.97;102002.81;5085878;28;20039;-69
2022/07/27 10:01:46;;;;;;;1.25;1.00;;;;;;;18.36;54.07;102008.53;5086282;28;20387;-69
2022/07/27 10:04:12;;;;;;;2.25;0.90;;;;;;;18.62;53.31;102003.97;5086056;28;20475;-69
2022/07/27 10:06:38;;;;;;;6.72;1.42;;;;;;;18.87;52.86;102000.44;5086298;28;20107;-70
2022/07/27 10:09:03;;;;;;;2.17;1.23;;;;;;;19.05;54.07;102001.28;5086201;28;20025;-70
2022/07/27 10:11:28;;;;;;;2.63;1.17;;;;;;;19.23;51.82;101992.34;5086058;28;20044;-70
2022/07/27 10:13:55;;;;;;;7.15;1.48;;;;;;;19.49;51.65;102002.00;5086038;28;20111;-70
2022/07/27 10:16:28;;;;;;;4.28;1.65;;;;;;;19.67;52.47;102003.84;5085978;28;20032;-69
2022/07/27 10:19:12;;;;;;;3.92;1.80;;;;;;;19.86;51.77;101995.72;5085823;28;20036;-69
2022/07/27 10:21:39;;;;;;;4.07;1.63;;;;;;;19.84;48.95;101995.94;5085916;28;20055;-70
2022/07/27 10:24:08;;;;;;;4.10;1.95;;;;;;;19.58;49.70;101994.38;5085817;28;20032;-70
2022/07/27 10:26:41;;;;;;;1.15;1.00;;;;;;;19.43;49.91;101991.25;5086030;28;20024;-70
2022/07/27 10:29:12;;;;;;;1.35;1.05;;;;;;;19.38;50.11;101991.09;5085694;28;20055;-70
2022/07/27 10:31:54;;;;;;;2.28;1.02;;;;;;;19.41;48.25;101991.50;5085704;28;20070;-69
2022/07/27 10:34:33;;;;;;;;;;;;;;;19.35;47.46;101995.09;5086149;28;20054;-70
2022/07/27 10:37:29;;;;;;;2.97;1.30;;;;;;;19.34;48.86;101984.50;5085605;28;19916;-70
2022/07/27 10:42:42;;;;;;;7.55;1.80;;;;;;;19.87;47.50;101981.09;5071939;28;20128;-70
2022/07/27 10:45:10;;;;;;;1.10;0.90;;;;;;;20.18;45.66;101984.59;5071876;28;20067;-70
2022/07/27 10:47:36;;;;;;;5.35;1.70;;;;;;;20.41;47.53;101973.78;5071739;28;20028;-69
2022/07/27 10:50:16;;;;;;;4.88;1.48;;;;;;;20.48;48.55;101988.03;5072034;28;20391;-70
2022/07/27 10:52:43;;;;;;;5.43;1.40;;;;;;;20.00;50.04;101985.50;5071783;28;20025;-68
2022/07/27 10:55:31;;;;;;;2.83;1.30;;;;;;;19.58;48.02;101977.31;5071705;28;20028;-69
2022/07/27 10:58:09;;;;;;;6.28;2.10;;;;;;;19.38;49.00;101980.28;5071348;28;20024;-69
2022/07/27 11:00:50;;;;;;;2.20;1.50;;;;;;;19.70;48.55;101970.94;5071314;28;20038;-69
2022/07/27 11:03:25;;;;;;;2.40;1.13;;;;;;;19.79;46.55;101976.03;5071505;28;20120;-70
2022/07/27 11:06:06;;;;;;;1.50;1.30;;;;;;;20.06;47.44;101965.59;5071264;28;20020;-70
2022/07/27 11:08:35;;;;;;;3.33;1.05;;;;;;;20.45;47.64;101957.88;5071349;28;20063;-69
2022/07/27 11:11:01;;;;;;;1.70;1.20;;;;;;;20.69;49.67;101956.00;5071454;28;20852;-69
2022/07/27 11:13:28;;;;;;;2.05;1.40;;;;;;;20.41;47.67;101957.53;5071585;28;20047;-70
2022/07/27 11:15:57;;;;;;;1.73;1.33;;;;;;;19.96;50.18;101962.63;5071417;28;20456;-69
2022/07/27 11:18:37;;;;;;;1.52;1.42;;;;;;;19.72;51.29;101961.75;5071086;28;20020;-70
2022/07/27 11:21:17;;;;;;;1.73;1.17;;;;;;;19.49;54.17;101965.97;5071146;28;20028;-69
2022/07/27 11:23:52;;;;;;;2.80;1.30;;;;;;;19.26;53.21;101972.13;5071246;28;20046;-69
2022/07/27 11:26:18;;;;;;;3.80;1.40;;;;;;;19.04;54.80;101956.34;5071236;28;20115;-69
2022/07/27 11:28:44;;;;;;;5.55;1.40;;;;;;;18.93;52.53;101957.09;5070593;28;20087;-71